Time;durP1;ratioP1;P1;durP2;ratioP2;P2;SDS_P1;SDS_P2;PMS_P1;PMS_P2;Temp;Humidity;BMP_temperature;BMP_pressure;BME280_temperature;BME280_humidity;BME280_pressure;Samples;Min_cycle;Max_cycle;Signal;HPM_P1;HPM_P2
2023/01/27 00:00:16;;;;;;;17.93;13.57;;;;;;;-0.88;100.00;98344.19;5054737;28;20287;-71
2023/01/27 00:02:43;;;;;;;15.33;11.90;;;;;;;-0.92;100.00;98341.06;5054498;28;20465;-71
2023/01/27 00:05:11;;;;;;;16.63;13.00;;;;;;;-0.98;100.00;98338.97;5054476;28;20452;-71
2023/01/27 00:07:38;;;;;;;20.43;14.40;;;;;;;-0.92;100.00;98343.66;5054498;28;20445;-71
2023/01/27 00:10:06;;;;;;;19.80;14.13;;;;;;;-0.92;100.00;98335.84;5054572;28;20205;-71
2023/01/27 00:15:16;;;;;;;19.33;12.73;;;;;;;-0.96;100.00;98349.28;5054528;28;20284;-71
2023/01/27 00:17:43;;;;;;;18.77;14.03;;;;;;;-0.95;100.00;98343.94;5054352;28;20212;-71
2023/01/27 00:20:10;;;;;;;16.70;13.83;;;;;;;-0.96;100.00;98334.47;5055184;28;20209;-71
2023/01/27 00:25:21;;;;;;;18.50;14.83;;;;;;;-0.97;100.00;98332.81;5053989;28;20428;-71
2023/01/27 00:27:47;;;;;;;21.13;15.43;;;;;;;-0.91;100.00;98327.03;5054162;28;20430;-71
2023/01/27 00:30:13;;;;;;;20.70;14.73;;;;;;;-0.99;100.00;98328.72;5054626;28;20211;-71
2023/01/27 00:35:24;;;;;;;20.23;14.47;;;;;;;-0.98;100.00;98338.19;5054171;28;20480;-71
2023/01/27 00:37:51;;;;;;;18.03;14.90;;;;;;;-1.04;100.00;98341.34;5053518;28;20458;-71
2023/01/27 00:40:18;;;;;;;19.17;14.00;;;;;;;-1.02;100.00;98337.66;5053951;28;20442;-71
2023/01/27 00:42:44;;;;;;;20.97;15.10;;;;;;;-1.12;100.00;98336.00;5053478;28;20837;-71
2023/01/27 00:47:55;;;;;;;23.73;16.00;;;;;;;-1.03;100.00;98332.56;5053642;28;20397;-71
2023/01/27 00:50:22;;;;;;;21.37;16.00;;;;;;;-0.87;100.00;98348.44;5053540;28;20434;-71
2023/01/27 00:52:48;;;;;;;17.97;14.47;;;;;;;-0.87;100.00;98349.28;5053749;28;20464;-71
2023/01/27 00:55:15;;;;;;;21.63;15.73;;;;;;;-0.70;100.00;98343.34;5053384;28;20438;-73
2023/01/27 00:57:42;;;;;;;21.23;14.77;;;;;;;-0.70;100.00;98343.34;5053380;28;21003;-71
2023/01/27 01:00:10;;;;;;;21.03;14.10;;;;;;;-0.84;100.00;98345.56;5053369;28;20449;-71
2023/01/27 01:02:37;;;;;;;21.17;14.57;;;;;;;-0.96;100.00;98337.06;5053561;28;20469;-71
2023/01/27 01:05:03;;;;;;;21.87;15.50;;;;;;;-1.01;100.00;98346.28;5053583;28;20442;-71
2023/01/27 01:07:30;;;;;;;18.30;13.43;;;;;;;-1.02;100.00;98339.41;5053171;28;20474;-71
2023/01/27 01:09:56;;;;;;;18.80;14.10;;;;;;;-1.03;100.00;98343.00;5053589;28;20449;-71
2023/01/27 01:12:22;;;;;;;21.00;15.37;;;;;;;-1.05;100.00;98357.94;5053141;28;20481;-71
2023/01/27 01:14:49;;;;;;;19.03;14.77;;;;;;;-1.01;100.00;98347.13;5053450;28;20434;-71
2023/01/27 01:17:15;;;;;;;18.67;13.17;;;;;;;-1.10;100.00;98355.78;5053230;28;20430;-71
2023/01/27 01:19:41;;;;;;;21.90;13.67;;;;;;;-1.10;100.00;98354.94;5053142;28;20809;-71
2023/01/27 01:22:08;;;;;;;17.13;13.07;;;;;;;-1.22;100.00;98351.66;5053080;28;20458;-70
2023/01/27 01:24:34;;;;;;;19.27;13.17;;;;;;;-1.13;100.00;98358.66;5053071;28;20446;-71
2023/01/27 01:27:00;;;;;;;18.90;14.33;;;;;;;-1.14;100.00;98354.41;5053255;28;20474;-71
2023/01/27 01:29:27;;;;;;;15.33;12.77;;;;;;;-1.10;100.00;98358.38;5053337;28;20437;-71
2023/01/27 01:31:53;;;;;;;18.40;12.60;;;;;;;-1.07;100.00;98362.50;5053295;28;20458;-71
2023/01/27 01:34:20;;;;;;;18.60;12.67;;;;;;;-1.16;100.00;98358.94;5053874;28;20445;-71
2023/01/27 01:36:46;;;;;;;19.87;13.63;;;;;;;-1.26;100.00;98354.69;5053235;28;20434;-71
2023/01/27 01:39:12;;;;;;;18.23;12.17;;;;;;;-1.25;100.00;98349.34;5053166;28;20445;-71
2023/01/27 01:41:39;;;;;;;17.13;13.13;;;;;;;-1.06;100.00;98353.69;5053091;28;20468;-71
2023/01/27 01:44:19;;;;;;;18.53;13.13;;;;;;;-1.07;100.00;98357.28;5053164;28;20434;-71
2023/01/27 01:46:46;;;;;;;17.20;12.40;;;;;;;-1.05;100.00;98356.19;5053051;28;20478;-71
2023/01/27 01:49:12;;;;;;;16.50;12.83;;;;;;;-1.06;100.00;98344.09;5053160;28;20472;-71
2023/01/27 01:51:46;;;;;;;15.53;11.20;;;;;;;-0.95;100.00;98340.53;5052142;28;20469;-71
2023/01/27 01:54:18;;;;;;;16.83;12.37;;;;;;;-0.87;100.00;98338.84;5051981;28;20430;-71
2023/01/27 01:56:49;;;;;;;16.90;11.47;;;;;;;-0.86;100.00;98339.69;5053107;28;20418;-71
2023/01/27 01:59:41;;;;;;;12.13;9.37;;;;;;;-0.86;100.00;98335.25;5052999;28;20442;-71
2023/01/27 02:02:13;;;;;;;13.47;9.77;;;;;;;-0.93;100.00;98331.59;5052724;28;20462;-71
2023/01/27 02:04:51;;;;;;;11.43;9.70;;;;;;;-1.00;100.00;98325.28;5051907;28;20423;-71
2023/01/27 02:07:41;;;;;;;12.83;9.20;;;;;;;-0.87;100.00;98323.19;5052817;28;20462;-71
2023/01/27 02:10:08;;;;;;;13.63;9.40;;;;;;;-0.87;100.00;98327.56;5053017;28;20426;-71
2023/01/27 02:12:35;;;;;;;15.87;10.97;;;;;;;-0.94;100.00;98324.69;5052367;28;21069;-73
2023/01/27 02:15:01;;;;;;;15.93;11.37;;;;;;;-1.08;100.00;98322.53;5052673;28;20888;-71
2023/01/27 02:17:28;;;;;;;12.93;9.70;;;;;;;-0.97;100.00;98322.38;5052885;28;20429;-71
2023/01/27 02:20:19;;;;;;;14.00;10.50;;;;;;;-0.99;100.00;98318.28;5054888;28;20445;-71
2023/01/27 02:23:10;;;;;;;14.33;10.50;;;;;;;-1.05;100.00;98318.81;5056521;28;20457;-71
2023/01/27 02:25:36;;;;;;;12.43;9.73;;;;;;;-0.79;100.00;98320.69;5056591;28;20422;-71
2023/01/27 02:28:05;;;;;;;11.93;9.27;;;;;;;-0.86;100.00;98317.00;5056167;28;20438;-71
2023/01/27 02:30:32;;;;;;;11.57;9.20;;;;;;;-0.85;100.00;98321.25;5056478;28;20801;-71
2023/01/27 02:32:59;;;;;;;13.40;9.57;;;;;;;-0.74;100.00;98315.88;5056333;28;20468;-71
2023/01/27 02:35:34;;;;;;;12.23;9.97;;;;;;;-0.79;100.00;98318.09;5056304;28;20442;-71
2023/01/27 02:38:00;;;;;;;12.20;9.10;;;;;;;-0.79;100.00;98318.09;5055978;28;20930;-71
2023/01/27 02:40:28;;;;;;;13.17;10.00;;;;;;;-0.81;100.00;98313.97;5056120;28;20807;-71
2023/01/27 02:42:57;;;;;;;12.27;9.83;;;;;;;-0.97;100.00;98321.56;5056132;28;20477;-71
2023/01/27 02:45:24;;;;;;;10.93;9.47;;;;;;;-0.92;100.00;98325.41;5055826;28;20941;-71
2023/01/27 02:47:50;;;;;;;14.80;10.70;;;;;;;-0.90;100.00;98333.91;5056010;28;20478;-71
2023/01/27 02:50:17;;;;;;;13.17;11.37;;;;;;;-0.91;100.00;98319.22;5056072;28;20434;-71
2023/01/27 02:52:43;;;;;;;12.47;9.27;;;;;;;-0.84;100.00;98322.91;5055975;28;20462;-71
2023/01/27 02:55:10;;;;;;;12.47;10.27;;;;;;;-0.86;100.00;98322.22;5055942;28;20438;-71
2023/01/27 02:57:36;;;;;;;13.97;11.57;;;;;;;-0.89;100.00;98322.47;5055917;28;20438;-71
2023/01/27 03:00:03;;;;;;;14.87;11.37;;;;;;;-0.99;100.00;98311.25;5055608;28;20952;-71
2023/01/27 03:02:30;;;;;;;15.20;10.67;;;;;;;-1.07;100.00;98318.94;5054336;28;20520;-72
2023/01/27 03:04:57;;;;;;;13.13;10.53;;;;;;;-0.79;100.00;98315.47;5055831;28;20483;-71
2023/01/27 03:07:24;;;;;;;13.37;10.77;;;;;;;-0.78;100.00;98311.06;5055697;28;20474;-71
2023/01/27 03:09:50;;;;;;;15.43;12.33;;;;;;;-0.84;100.00;98302.03;5055748;28;20438;-71
2023/01/27 03:12:19;;;;;;;15.27;11.63;;;;;;;-0.87;100.00;98310.13;5055182;28;20566;-71
2023/01/27 03:20:14;;;;;;;14.50;11.67;;;;;;;-0.81;100.00;98313.97;5055564;28;20928;-71
2023/01/27 03:22:40;;;;;;;14.23;11.70;;;;;;;-0.86;100.00;98313.56;5055443;28;20462;-71
2023/01/27 03:25:07;;;;;;;17.37;12.87;;;;;;;-1.06;100.00;98310.19;5055128;28;20442;-71
2023/01/27 03:27:35;;;;;;;14.37;12.57;;;;;;;-0.98;100.00;98317.31;5055317;28;20482;-71
2023/01/27 03:30:01;;;;;;;16.77;12.80;;;;;;;-0.95;100.00;98315.22;5054671;28;20442;-71
2023/01/27 03:32:30;;;;;;;16.80;12.67;;;;;;;-0.88;100.00;98315.50;5054930;28;20462;-71
2023/01/27 03:34:57;;;;;;;17.93;13.87;;;;;;;-0.89;100.00;98329.50;5055253;28;20438;-71
2023/01/27 03:48:32;;;;;;;17.40;13.77;;;;;;;-0.94;100.00;98324.69;5054833;28;20392;-71
2023/01/27 03:50:59;;;;;;;17.53;13.40;;;;;;;-1.11;100.00;98320.22;5054803;28;20442;-71
2023/01/27 03:53:25;;;;;;;19.50;14.40;;;;;;;-0.95;100.00;98320.44;5054865;28;20438;-71
2023/01/27 03:55:52;;;;;;;17.47;12.40;;;;;;;-1.07;100.00;98326.78;5054761;28;20445;-71
2023/01/27 03:58:30;;;;;;;15.43;12.97;;;;;;;-1.05;100.00;98324.88;5054797;28;20204;-71
2023/01/27 04:01:17;;;;;;;17.53;12.80;;;;;;;-0.83;100.00;98332.38;5054612;28;20772;-71
2023/01/27 04:09:23;;;;;;;15.80;12.53;;;;;;;-0.88;100.00;98328.53;5054537;28;20410;-71
2023/01/27 04:11:55;;;;;;;15.33;11.57;;;;;;;-0.89;100.00;98322.47;5054205;28;20462;-71
2023/01/27 04:14:23;;;;;;;18.23;13.17;;;;;;;-0.77;100.00;98326.59;5054268;28;20517;-73
2023/01/27 04:16:55;;;;;;;19.40;14.73;;;;;;;-0.74;100.00;98336.75;5054047;28;20664;-71
2023/01/27 04:19:21;;;;;;;19.90;16.13;;;;;;;-0.87;100.00;98331.00;5054364;28;20422;-71
2023/01/27 04:21:48;;;;;;;20.13;14.83;;;;;;;-0.77;100.00;98339.63;5054024;28;20462;-71
2023/01/27 04:24:23;;;;;;;19.03;14.97;;;;;;;-0.86;100.00;98340.47;5053809;28;20220;-71
2023/01/27 04:26:56;;;;;;;17.33;13.80;;;;;;;-0.78;100.00;98345.81;5054012;28;20466;-71
2023/01/27 04:29:24;;;;;;;17.60;14.17;;;;;;;-0.87;100.00;98338.84;5053811;28;20904;-71
2023/01/27 04:31:51;;;;;;;19.43;15.60;;;;;;;-0.88;100.00;98349.41;5053857;28;20458;-71
2023/01/27 04:34:18;;;;;;;21.17;16.33;;;;;;;-0.81;100.00;98348.72;5053877;28;20434;-71
2023/01/27 04:36:46;;;;;;;22.67;18.00;;;;;;;-0.73;100.00;98346.22;5053493;28;20439;-71
2023/01/27 04:39:13;;;;;;;21.70;17.20;;;;;;;-0.79;100.00;98352.00;5053610;28;20885;-71
2023/01/27 04:41:39;;;;;;;20.50;17.13;;;;;;;-0.82;100.00;98338.41;5052763;28;20477;-71
2023/01/27 04:44:07;;;;;;;21.80;18.10;;;;;;;-0.85;100.00;98342.13;5053211;28;20438;-71
2023/01/27 04:46:34;;;;;;;22.27;16.00;;;;;;;-0.78;100.00;98338.00;5052991;28;20477;-71
2023/01/27 04:49:01;;;;;;;19.67;15.13;;;;;;;-0.87;100.00;98335.41;5053338;28;20442;-72
2023/01/27 04:51:28;;;;;;;20.47;16.07;;;;;;;-0.98;100.00;98341.59;5053003;28;20981;-71
2023/01/27 04:53:54;;;;;;;20.33;16.67;;;;;;;-0.83;100.00;98341.97;5053301;28;20438;-71
2023/01/27 04:56:26;;;;;;;20.13;16.47;;;;;;;-0.94;100.00;98337.75;5053004;28;20442;-71
2023/01/27 04:58:53;;;;;;;23.13;16.67;;;;;;;-0.93;100.00;98335.97;5053219;28;20427;-72
2023/01/27 05:01:20;;;;;;;20.60;16.93;;;;;;;-0.97;100.00;98337.22;5053542;28;20462;-71
2023/01/27 05:03:46;;;;;;;20.67;16.37;;;;;;;-0.72;100.00;98341.84;5053488;28;20797;-71
2023/01/27 05:06:13;;;;;;;23.03;18.33;;;;;;;-0.87;100.00;98349.28;5053256;28;20464;-71
2023/01/27 05:08:40;;;;;;;22.70;17.33;;;;;;;-1.03;100.00;98346.41;5052925;28;20934;-71
2023/01/27 05:11:06;;;;;;;22.37;17.00;;;;;;;-0.93;100.00;98343.78;5054120;28;20790;-72
2023/01/27 05:13:33;;;;;;;21.93;16.93;;;;;;;-0.89;100.00;98343.34;5052932;28;20461;-71
2023/01/27 05:16:14;;;;;;;21.30;15.93;;;;;;;-0.83;100.00;98352.41;5053145;28;20449;-71
2023/01/27 05:18:42;;;;;;;20.73;15.93;;;;;;;-0.84;100.00;98337.72;5053229;28;20449;-71
2023/01/27 05:21:11;;;;;;;20.77;15.33;;;;;;;-0.86;100.00;98334.47;5052941;28;20468;-71
2023/01/27 05:23:37;;;;;;;22.47;16.43;;;;;;;-0.90;100.00;98333.91;5053109;28;20804;-71
2023/01/27 05:26:12;;;;;;;20.53;16.33;;;;;;;-0.91;100.00;98341.84;5053183;28;20528;-71
2023/01/27 05:28:44;;;;;;;20.63;16.47;;;;;;;-0.86;100.00;98353.53;5053615;28;20461;-72
2023/01/27 05:31:17;;;;;;;20.23;15.37;;;;;;;-0.85;100.00;98354.38;5052990;28;20422;-72
2023/01/27 05:33:44;;;;;;;21.93;16.23;;;;;;;-0.82;100.00;98361.88;5052607;28;20898;-72
2023/01/27 05:36:12;;;;;;;22.10;15.53;;;;;;;-0.86;100.00;98363.97;5052799;28;20434;-72
2023/01/27 05:38:39;;;;;;;21.97;16.30;;;;;;;-0.90;100.00;98359.19;5052809;28;20442;-72
2023/01/27 05:41:08;;;;;;;21.47;16.27;;;;;;;-0.89;100.00;98363.44;5052280;28;20937;-71
2023/01/27 05:43:36;;;;;;;21.67;16.40;;;;;;;-0.96;100.00;98371.00;5052574;28;20442;-72
2023/01/27 05:46:17;;;;;;;21.93;16.50;;;;;;;-0.95;100.00;98377.84;5053205;28;20445;-72
2023/01/27 05:48:49;;;;;;;21.17;16.33;;;;;;;-0.83;100.00;98375.91;5052151;28;20490;-72
2023/01/27 05:51:17;;;;;;;22.57;16.67;;;;;;;-0.89;100.00;98371.25;5052572;28;20431;-72
2023/01/27 05:53:44;;;;;;;22.30;17.07;;;;;;;-0.92;100.00;98361.09;5054524;28;20460;-72
2023/01/27 05:56:12;;;;;;;23.03;16.80;;;;;;;-0.97;100.00;98365.91;5056764;28;20442;-72
2023/01/27 05:58:39;;;;;;;24.07;16.70;;;;;;;-0.93;100.00;98365.50;5056532;28;20533;-72
2023/01/27 06:01:09;;;;;;;23.40;17.00;;;;;;;-0.93;100.00;98368.13;5056019;28;20941;-72
2023/01/27 06:03:36;;;;;;;19.87;15.17;;;;;;;-0.80;100.00;98371.22;5056084;28;20804;-72
2023/01/27 06:06:02;;;;;;;21.13;15.37;;;;;;;-0.89;100.00;98363.44;5056221;28;20236;-72
2023/01/27 06:08:29;;;;;;;20.03;16.57;;;;;;;-0.91;100.00;98366.19;5056109;28;20876;-72
2023/01/27 06:10:55;;;;;;;18.03;14.77;;;;;;;-0.85;100.00;98363.00;5056359;28;20213;-72
2023/01/27 06:13:23;;;;;;;17.10;13.57;;;;;;;-0.81;100.00;98364.38;5055930;28;20450;-72
2023/01/27 06:15:50;;;;;;;25.53;15.87;;;;;;;-0.82;100.00;98365.34;5055585;28;20449;-72
2023/01/27 06:18:18;;;;;;;18.10;14.53;;;;;;;-0.85;100.00;98365.59;5056077;28;20817;-72
2023/01/27 06:20:45;;;;;;;19.03;14.77;;;;;;;-0.77;100.00;98368.34;5056071;28;20441;-72
2023/01/27 06:23:14;;;;;;;17.00;14.07;;;;;;;-0.81;100.00;98369.59;5055746;28;20464;-72
2023/01/27 06:25:46;;;;;;;16.93;13.60;;;;;;;-0.82;100.00;98373.16;5055871;28;20555;-72
2023/01/27 06:28:13;;;;;;;17.33;14.13;;;;;;;-0.83;100.00;98368.09;5055796;28;20485;-72
2023/01/27 06:30:40;;;;;;;20.07;15.63;;;;;;;-0.90;100.00;98370.44;5056131;28;20445;-72
2023/01/27 06:33:08;;;;;;;18.83;14.80;;;;;;;-0.82;100.00;98375.78;5055741;28;20466;-72
2023/01/27 06:35:35;;;;;;;18.50;13.97;;;;;;;-0.85;100.00;98367.41;5055713;28;20454;-72
2023/01/27 06:38:04;;;;;;;18.07;14.53;;;;;;;-0.87;100.00;98367.56;5055659;28;20516;-72
2023/01/27 06:40:31;;;;;;;17.17;13.63;;;;;;;-0.77;100.00;98384.00;5055223;28;20957;-72
2023/01/27 06:42:58;;;;;;;18.97;13.70;;;;;;;-0.96;100.00;98376.22;5055644;28;20458;-72
2023/01/27 06:45:25;;;;;;;20.63;15.27;;;;;;;-0.98;100.00;98390.38;5055697;28;20445;-72
2023/01/27 06:47:59;;;;;;;18.83;14.00;;;;;;;-0.75;100.00;98379.50;5055720;28;20473;-72
2023/01/27 06:50:28;;;;;;;17.60;15.00;;;;;;;-0.78;100.00;98390.19;5056083;28;20644;-72
2023/01/27 06:53:00;;;;;;;18.47;14.30;;;;;;;-0.68;100.00;98401.44;5055495;28;20462;-72
2023/01/27 06:55:30;;;;;;;18.70;14.27;;;;;;;-0.74;100.00;98406.41;5055547;28;20197;-72
2023/01/27 06:57:56;;;;;;;22.73;15.63;;;;;;;-0.77;100.00;98404.88;5055016;28;20438;-72
2023/01/27 07:00:23;;;;;;;19.63;14.00;;;;;;;-0.79;100.00;98411.22;5055377;28;20438;-72
2023/01/27 07:02:50;;;;;;;20.10;14.73;;;;;;;-0.79;100.00;98419.03;5055380;28;20458;-72
2023/01/27 07:05:16;;;;;;;18.90;13.63;;;;;;;-0.89;100.00;98423.44;5054445;28;20545;-72
2023/01/27 07:07:42;;;;;;;17.80;13.90;;;;;;;-0.79;100.00;98426.88;5055262;28;20482;-72
2023/01/27 07:10:09;;;;;;;16.80;13.53;;;;;;;-0.84;100.00;98429.06;5055155;28;20440;-72
2023/01/27 07:12:36;;;;;;;18.40;14.77;;;;;;;-0.86;100.00;98436.25;5054975;28;20476;-72
2023/01/27 07:15:07;;;;;;;17.17;13.87;;;;;;;-0.72;100.00;98439.22;5054990;28;20478;-72
2023/01/27 07:17:35;;;;;;;14.87;12.73;;;;;;;-0.69;100.00;98440.72;5054951;28;20522;-72
2023/01/27 07:20:01;;;;;;;16.70;12.67;;;;;;;-0.69;100.00;98432.91;5054384;28;20451;-69
2023/01/27 07:22:28;;;;;;;17.67;13.77;;;;;;;-0.74;100.00;98443.78;5054807;28;20454;-71
2023/01/27 07:24:55;;;;;;;17.30;13.17;;;;;;;-0.74;100.00;98446.38;5054574;28;20952;-71
2023/01/27 07:27:25;;;;;;;18.47;13.47;;;;;;;-0.69;100.00;98441.56;5054801;28;20552;-71
2023/01/27 07:29:51;;;;;;;20.07;14.07;;;;;;;-0.79;100.00;98448.59;5054529;28;20441;-71
2023/01/27 07:32:18;;;;;;;17.07;12.80;;;;;;;-0.78;100.00;98431.97;5054803;28;20458;-72
2023/01/27 07:34:44;;;;;;;16.33;13.33;;;;;;;-0.70;100.00;98446.91;5054757;28;20441;-72
2023/01/27 07:37:11;;;;;;;14.07;11.20;;;;;;;-0.73;100.00;98453.25;5054502;28;20435;-72
2023/01/27 07:39:37;;;;;;;15.47;12.53;;;;;;;-0.71;100.00;98459.13;5054752;28;20448;-72
2023/01/27 07:42:05;;;;;;;17.10;12.37;;;;;;;-0.71;100.00;98451.31;5054475;28;20232;-72
2023/01/27 07:44:31;;;;;;;16.13;13.43;;;;;;;-0.77;100.00;98457.09;5054674;28;20524;-72
2023/01/27 07:46:59;;;;;;;16.47;12.10;;;;;;;-0.79;100.00;98453.81;5054467;28;20453;-72
2023/01/27 07:49:25;;;;;;;12.37;10.50;;;;;;;-0.65;100.00;98450.78;5054642;28;20446;-72
2023/01/27 07:51:52;;;;;;;16.97;12.00;;;;;;;-0.63;100.00;98458.47;5054590;28;20462;-72
2023/01/27 07:54:19;;;;;;;17.13;12.27;;;;;;;-0.76;100.00;98461.34;5054566;28;20442;-72
2023/01/27 07:56:45;;;;;;;17.07;11.50;;;;;;;-0.76;100.00;98466.56;5054434;28;20434;-72
2023/01/27 07:59:12;;;;;;;15.83;12.63;;;;;;;-0.66;100.00;98472.63;5054298;28;20430;-72
2023/01/27 08:01:40;;;;;;;13.60;11.13;;;;;;;-0.82;100.00;98474.97;5054321;28;20463;-72
2023/01/27 08:04:06;;;;;;;14.70;10.83;;;;;;;-0.73;100.00;98474.13;5053926;28;20851;-72
2023/01/27 08:06:32;;;;;;;14.17;10.80;;;;;;;-0.86;100.00;98478.81;5054396;28;20756;-72
2023/01/27 08:08:59;;;;;;;12.80;11.10;;;;;;;-0.77;100.00;98477.97;5054153;28;20569;-72
2023/01/27 08:11:25;;;;;;;14.90;10.90;;;;;;;-0.70;100.00;98471.25;5066495;28;20806;-72
2023/01/27 08:13:52;;;;;;;14.27;12.00;;;;;;;-0.85;100.00;98477.84;5073648;28;20449;-72
2023/01/27 08:16:19;;;;;;;17.03;11.80;;;;;;;-0.87;100.00;98485.00;5072809;28;20449;-73
2023/01/27 08:18:45;;;;;;;15.77;11.30;;;;;;;-0.69;100.00;98485.94;5073833;28;20443;-72
2023/01/27 08:21:12;;;;;;;13.23;10.30;;;;;;;-0.69;100.00;98474.66;5073785;28;20433;-73
2023/01/27 08:23:39;;;;;;;17.17;12.47;;;;;;;-0.82;100.00;98482.78;5073515;28;20446;-72
2023/01/27 08:26:06;;;;;;;17.97;11.90;;;;;;;-0.74;100.00;98480.31;5073428;28;20469;-72
2023/01/27 08:28:35;;;;;;;15.17;11.23;;;;;;;-0.66;100.00;98493.50;5073161;28;20568;-72
2023/01/27 08:31:06;;;;;;;15.20;11.63;;;;;;;-0.69;100.00;98503.38;5073551;28;20437;-72
2023/01/27 08:33:32;;;;;;;15.10;12.60;;;;;;;-0.79;100.00;98500.78;5073279;28;20437;-73
2023/01/27 08:36:11;;;;;;;16.57;11.73;;;;;;;-0.60;100.00;98500.78;5074115;28;20444;-72
2023/01/27 08:38:39;;;;;;;15.20;10.93;;;;;;;-0.53;100.00;98501.06;5073729;28;20436;-73
2023/01/27 08:41:08;;;;;;;13.67;9.83;;;;;;;-0.67;100.00;98504.88;5073111;28;20441;-73
2023/01/27 08:43:35;;;;;;;14.30;10.00;;;;;;;-0.45;100.00;98504.59;5074093;28;20437;-73
2023/01/27 08:46:02;;;;;;;14.13;11.17;;;;;;;-0.67;100.00;98504.88;5073513;28;20437;-72
2023/01/27 08:48:30;;;;;;;15.03;10.50;;;;;;;-0.70;100.00;98512.19;5073006;28;20960;-73
2023/01/27 08:50:57;;;;;;;16.67;12.03;;;;;;;-0.61;100.00;98511.34;5073490;28;20488;-73
2023/01/27 08:53:24;;;;;;;15.20;11.97;;;;;;;-0.46;100.00;98510.78;5073353;28;20443;-73
2023/01/27 08:55:53;;;;;;;14.77;10.63;;;;;;;-0.59;100.00;98499.81;5073298;28;20437;-73
2023/01/27 08:58:20;;;;;;;11.67;9.50;;;;;;;-0.70;100.00;98510.41;5073077;28;20477;-73
2023/01/27 09:00:46;;;;;;;12.77;9.70;;;;;;;-0.52;100.00;98508.75;5073049;28;20432;-73
2023/01/27 09:03:13;;;;;;;13.73;10.57;;;;;;;-0.71;100.00;98523.59;5073401;28;20458;-73
2023/01/27 09:05:41;;;;;;;14.10;10.37;;;;;;;-0.76;100.00;98526.59;5073113;28;20490;-73
2023/01/27 09:08:08;;;;;;;14.73;10.43;;;;;;;-0.65;100.00;98526.47;5072923;28;20472;-72
2023/01/27 09:10:39;;;;;;;14.87;10.13;;;;;;;-0.55;100.00;98510.78;5073460;28;20204;-72
2023/01/27 09:13:07;;;;;;;15.63;11.73;;;;;;;-0.72;100.00;98520.16;5072912;28;20473;-72
2023/01/27 09:15:35;;;;;;;14.63;11.03;;;;;;;-0.65;100.00;98502.97;5073175;28;20433;-72
2023/01/27 09:18:02;;;;;;;16.90;12.27;;;;;;;-0.53;100.00;98507.06;5073132;28;20435;-73
2023/01/27 09:20:29;;;;;;;14.67;11.73;;;;;;;-0.61;100.00;98506.13;5073360;28;20448;-73
2023/01/27 09:22:56;;;;;;;16.23;11.30;;;;;;;-0.55;100.00;98505.56;5072986;28;20556;-73
2023/01/27 09:25:22;;;;;;;15.97;11.60;;;;;;;-0.33;100.00;98505.28;5073200;28;20208;-73
2023/01/27 09:27:49;;;;;;;16.77;12.60;;;;;;;-0.27;100.00;98510.75;5074779;28;20477;-72
2023/01/27 09:30:16;;;;;;;14.43;11.33;;;;;;;-0.14;100.00;98513.06;5079720;28;20441;-72
2023/01/27 09:32:42;;;;;;;19.30;12.93;;;;;;;-0.34;100.00;98508.84;5079689;28;20464;-72
2023/01/27 09:35:09;;;;;;;20.70;12.90;;;;;;;-0.54;100.00;98513.28;5079810;28;20463;-72
2023/01/27 09:37:41;;;;;;;17.40;12.00;;;;;;;-0.57;100.00;98515.34;5079561;28;20472;-73
2023/01/27 09:40:18;;;;;;;19.20;13.10;;;;;;;-0.43;100.00;98515.75;5079754;28;20203;-73
2023/01/27 09:43:13;;;;;;;17.20;13.30;;;;;;;-0.50;100.00;98513.81;5079113;28;20231;-73
2023/01/27 09:46:02;;;;;;;18.97;13.77;;;;;;;-0.35;100.00;98517.66;5053156;28;20772;-72
2023/01/27 09:48:43;;;;;;;16.40;11.73;;;;;;;-0.05;100.00;98522.66;5078499;28;20220;-72
2023/01/27 09:51:29;;;;;;;19.97;13.20;;;;;;;-0.13;100.00;98522.56;5079577;28;20189;-72
2023/01/27 09:53:58;;;;;;;19.63;12.80;;;;;;;-0.29;100.00;98515.31;5078243;28;20658;-72
2023/01/27 09:56:27;;;;;;;18.93;13.43;;;;;;;-0.17;100.00;98523.81;5079630;28;20209;-73
2023/01/27 09:59:19;;;;;;;20.00;13.13;;;;;;;-0.15;100.00;98520.09;5079290;28;20208;-72
2023/01/27 10:02:07;;;;;;;22.03;14.13;;;;;;;-0.15;100.00;98522.72;5078291;28;20591;-72
2023/01/27 10:04:42;;;;;;;18.63;12.53;;;;;;;-0.11;100.00;98521.47;5079383;28;20185;-73
2023/01/27 10:07:55;;;;;;;19.33;13.23;;;;;;;-0.15;100.00;98514.03;5078904;28;20663;-73
2023/01/27 10:10:36;;;;;;;19.47;12.27;;;;;;;0.09;100.00;98520.44;5079351;28;20181;-73
2023/01/27 10:13:23;;;;;;;19.50;13.23;;;;;;;0.17;100.00;98514.50;5078509;28;20228;-73
2023/01/27 10:16:14;;;;;;;15.20;10.50;;;;;;;0.02;100.00;98518.53;5079101;28;20226;-73
2023/01/27 10:19:02;;;;;;;14.93;11.30;;;;;;;0.13;100.00;98522.78;5079229;28;20184;-73
2023/01/27 10:21:43;;;;;;;16.30;11.20;;;;;;;0.06;100.00;98510.25;5079183;28;20246;-73
2023/01/27 10:24:43;;;;;;;16.10;11.37;;;;;;;0.41;98.26;98520.06;5079169;28;20567;-73
2023/01/27 10:27:17;;;;;;;17.43;11.27;;;;;;;0.35;98.14;98520.63;5079482;28;20223;-73
2023/01/27 10:29:49;;;;;;;17.93;11.87;;;;;;;0.30;96.98;98519.41;5078648;28;20212;-73
2023/01/27 10:32:27;;;;;;;16.43;11.10;;;;;;;0.06;98.36;98515.47;5078679;28;20239;-73
2023/01/27 10:35:10;;;;;;;16.60;11.23;;;;;;;0.32;99.28;98519.13;5079205;28;20222;-73
2023/01/27 10:37:47;;;;;;;15.17;10.57;;;;;;;0.55;96.42;98513.50;5078822;28;20654;-73
2023/01/27 10:40:52;;;;;;;17.47;10.63;;;;;;;0.27;97.16;98519.69;5058852;28;20189;-74
2023/01/27 10:43:44;;;;;;;15.13;10.87;;;;;;;0.01;99.84;98517.69;5068968;28;20235;-74
2023/01/27 10:46:30;;;;;;;12.97;9.17;;;;;;;0.19;98.22;98517.81;5075760;28;20204;-73
2023/01/27 10:49:21;;;;;;;12.60;10.03;;;;;;;0.49;96.63;98525.38;5074765;28;20235;-73
2023/01/27 10:51:57;;;;;;;11.60;8.93;;;;;;;0.14;97.08;98531.28;5076239;28;20258;-73
2023/01/27 10:54:34;;;;;;;11.97;8.50;;;;;;;0.51;97.73;98533.06;5076186;28;20417;-73
2023/01/27 10:57:13;;;;;;;13.53;9.13;;;;;;;0.58;93.65;98527.13;5075842;28;20192;-73
2023/01/27 10:59:39;;;;;;;12.60;9.37;;;;;;;0.40;96.63;98530.66;5075665;28;20185;-73
2023/01/27 11:02:08;;;;;;;12.20;8.97;;;;;;;0.19;98.69;98520.41;5075445;28;20224;-72
2023/01/27 11:04:42;;;;;;;12.90;9.17;;;;;;;0.13;100.00;98520.16;5075538;28;20204;-71
2023/01/27 11:07:16;;;;;;;13.53;9.53;;;;;;;-0.07;98.81;98519.38;5075407;28;20193;-71
2023/01/27 11:09:54;;;;;;;13.27;9.70;;;;;;;0.18;98.01;98522.19;5074139;28;20213;-71
2023/01/27 11:12:30;;;;;;;12.57;9.43;;;;;;;0.26;99.66;98516.25;5075086;28;20243;-72
2023/01/27 11:14:58;;;;;;;13.17;9.50;;;;;;;0.17;98.72;98524.16;5074908;28;20185;-71
2023/01/27 11:17:52;;;;;;;13.63;9.97;;;;;;;0.02;99.34;98515.94;5074855;28;20204;-71
2023/01/27 11:20:27;;;;;;;12.27;8.97;;;;;;;0.30;98.55;98514.19;5074138;28;20200;-71
2023/01/27 11:22:59;;;;;;;16.63;9.17;;;;;;;0.28;98.08;98522.97;5074668;28;20228;-71
2023/01/27 11:25:44;;;;;;;13.10;8.80;;;;;;;0.38;97.86;98515.91;5075121;28;20199;-71
2023/01/27 11:28:25;;;;;;;13.80;8.97;;;;;;;0.38;100.00;98513.28;5074825;28;20196;-71
2023/01/27 11:31:01;;;;;;;12.77;8.27;;;;;;;0.40;96.69;98510.53;5075009;28;20189;-71
2023/01/27 11:33:50;;;;;;;16.30;9.57;;;;;;;0.36;98.91;98514.41;5073079;28;20623;-70
2023/01/27 11:36:17;;;;;;;15.17;9.07;;;;;;;0.56;96.41;98504.69;5073689;28;20284;-71
2023/01/27 11:38:43;;;;;;;11.30;8.97;;;;;;;0.58;94.70;98514.03;5074451;28;20304;-71
2023/01/27 11:41:10;;;;;;;12.33;8.47;;;;;;;0.38;95.85;98508.06;5074824;28;20231;-71
2023/01/27 11:43:37;;;;;;;16.23;9.33;;;;;;;0.31;96.55;98497.53;5074853;28;20204;-71
2023/01/27 11:46:11;;;;;;;11.60;8.50;;;;;;;0.39;96.42;98495.81;5075340;28;20255;-70
2023/01/27 11:48:45;;;;;;;15.13;8.47;;;;;;;0.62;95.75;98497.09;5074007;28;20218;-71
2023/01/27 11:51:24;;;;;;;12.27;8.77;;;;;;;0.59;94.86;98509.63;5074282;28;20241;-71
2023/01/27 11:54:25;;;;;;;13.63;8.27;;;;;;;0.52;96.95;98503.31;5074317;28;20204;-70
2023/01/27 11:56:51;;;;;;;15.70;8.67;;;;;;;0.40;97.26;98502.69;5073259;28;20234;-71
2023/01/27 11:59:28;;;;;;;13.53;9.87;;;;;;;0.47;99.36;98502.94;5073881;28;20212;-70